createdAt,value
2023-05-13T00:02:45.738Z,13.33
2023-05-13T00:06:58.143Z,13.21
2023-05-13T00:11:10.881Z,13.36
2023-05-13T00:15:23.533Z,13.25
2023-05-13T00:19:36.037Z,13.11
2023-05-13T00:23:48.753Z,13.21
2023-05-13T00:28:01.330Z,13.02
2023-05-13T00:32:13.777Z,13.21
2023-05-13T00:36:27.707Z,13.42
2023-05-13T00:40:40.255Z,13.27
2023-05-13T00:44:53.310Z,13.20
2023-05-13T00:49:05.776Z,13.37
2023-05-13T00:53:20.986Z,13.33
2023-05-13T00:57:33.784Z,13.40
2023-05-13T01:01:56.652Z,13.34
2023-05-13T01:06:20.881Z,13.23
2023-05-13T01:10:58.059Z,13.09
2023-05-13T01:15:15.556Z,13.14
2023-05-13T01:19:54.929Z,13.17
2023-05-13T01:24:08.019Z,13.19
2023-05-13T01:28:20.914Z,13.25
2023-05-13T01:32:38.899Z,13.35
2023-05-13T01:36:51.913Z,13.28
2023-05-13T01:41:06.221Z,13.29
2023-05-13T01:45:18.913Z,13.14
2023-05-13T01:49:31.533Z,13.28
2023-05-13T01:53:44.081Z,13.26
2023-05-13T01:57:56.696Z,13.02
2023-05-13T02:02:09.118Z,13.08
2023-05-13T02:06:21.665Z,13.17
2023-05-13T02:10:34.556Z,13.00
2023-05-13T02:14:46.872Z,12.81
2023-05-13T02:18:59.441Z,12.85
2023-05-13T02:23:15.112Z,12.73
2023-05-13T02:27:27.558Z,12.61
2023-05-13T02:31:41.503Z,12.55
2023-05-13T02:35:53.861Z,12.65
2023-05-13T02:40:06.962Z,12.70
2023-05-13T02:44:19.496Z,12.58
2023-05-13T02:48:32.207Z,12.60
2023-05-13T02:52:46.616Z,12.53
2023-05-13T02:56:59.107Z,12.74
2023-05-13T03:01:11.910Z,12.78
2023-05-13T03:05:24.503Z,12.67
2023-05-13T03:09:39.478Z,12.51
2023-05-13T03:13:52.702Z,12.56
2023-05-13T03:18:05.125Z,12.47
2023-05-13T03:22:18.116Z,12.62
2023-05-13T03:26:30.849Z,12.65
2023-05-13T03:30:44.352Z,12.75
2023-05-13T03:35:01.623Z,12.55
2023-05-13T03:39:16.484Z,12.67
2023-05-13T03:43:29.609Z,12.82
2023-05-13T03:47:46.347Z,12.75
2023-05-13T03:52:01.936Z,12.92
2023-05-13T03:56:15.243Z,13.02
2023-05-13T04:00:30.512Z,13.06
2023-05-13T04:04:43.220Z,13.11
2023-05-13T04:08:55.659Z,13.11
2023-05-13T04:13:08.414Z,13.16
2023-05-13T04:17:20.998Z,13.40
2023-05-13T04:21:33.441Z,13.54
2023-05-13T04:25:53.843Z,13.77
2023-05-13T04:30:07.206Z,13.95
2023-05-13T04:34:21.235Z,13.88
2023-05-13T04:38:34.163Z,14.26
2023-05-13T04:42:55.012Z,14.19
2023-05-13T04:47:15.243Z,15.26
2023-05-13T04:51:28.145Z,16.13
2023-05-13T04:55:41.282Z,15.85
2023-05-13T04:59:53.640Z,15.86
2023-05-13T05:04:06.738Z,16.38
2023-05-13T05:08:21.123Z,17.01
2023-05-13T05:12:35.588Z,15.58
2023-05-13T05:16:48.321Z,16.18
2023-05-13T05:21:02.511Z,17.11
2023-05-13T05:25:15.666Z,17.10
2023-05-13T05:29:28.495Z,17.91
2023-05-13T05:33:41.722Z,17.86
2023-05-13T05:37:54.137Z,18.86
2023-05-13T05:42:08.199Z,19.64
2023-05-13T05:46:23.077Z,19.96
2023-05-13T05:50:39.450Z,20.29
2023-05-13T05:54:53.807Z,20.45
2023-05-13T05:59:06.334Z,20.56
2023-05-13T06:03:19.339Z,20.49
2023-05-13T06:07:32.331Z,20.81
2023-05-13T06:11:45.080Z,20.37
2023-05-13T06:15:57.763Z,20.97
2023-05-13T06:20:10.600Z,21.00
2023-05-13T06:24:23.155Z,20.31
2023-05-13T06:28:35.739Z,21.09
2023-05-13T06:33:00.728Z,21.28
2023-05-13T06:37:15.723Z,21.25
2023-05-13T06:41:28.829Z,21.74
2023-05-13T06:45:46.903Z,21.68
2023-05-13T06:50:02.036Z,21.43
2023-05-13T06:54:16.213Z,20.57
2023-05-13T06:58:28.687Z,21.26
2023-05-13T07:02:42.035Z,21.21
2023-05-13T07:06:55.066Z,20.85
2023-05-13T07:11:07.665Z,21.49
2023-05-13T07:15:20.719Z,21.39
2023-05-13T07:19:33.378Z,21.88
2023-05-13T07:23:45.931Z,21.72
2023-05-13T07:27:58.377Z,21.48
2023-05-13T07:32:10.990Z,21.64
2023-05-13T07:36:24.338Z,21.97
2023-05-13T07:40:36.970Z,22.35
2023-05-13T07:44:49.381Z,21.94
2023-05-13T07:49:03.714Z,22.51
2023-05-13T07:53:18.287Z,22.39
2023-05-13T07:57:32.110Z,23.02
2023-05-13T08:01:44.574Z,23.25
2023-05-13T08:05:56.978Z,23.57
2023-05-13T08:10:09.626Z,23.11
2023-05-13T08:14:22.275Z,23.23
2023-05-13T08:18:34.713Z,23.01
2023-05-13T08:22:47.943Z,23.65
2023-05-13T08:27:00.500Z,22.96
2023-05-13T08:31:13.487Z,23.02
2023-05-13T08:35:26.466Z,24.07
2023-05-13T08:39:38.864Z,24.89
2023-05-13T08:43:54.590Z,24.40
2023-05-13T08:48:08.066Z,23.88
2023-05-13T08:52:23.179Z,23.78
2023-05-13T08:56:35.868Z,24.72
2023-05-13T09:00:50.193Z,24.60
2023-05-13T09:05:10.139Z,23.79
2023-05-13T09:09:22.705Z,23.91
2023-05-13T09:13:35.504Z,23.20
2023-05-13T09:17:53.369Z,23.50
2023-05-13T09:22:05.998Z,23.76
2023-05-13T09:26:31.614Z,23.74
2023-05-13T09:30:46.677Z,23.38
2023-05-13T09:35:16.938Z,23.50
2023-05-13T09:39:33.453Z,23.81
2023-05-13T09:43:46.519Z,22.80
2023-05-13T09:47:58.977Z,22.73
2023-05-13T09:52:12.350Z,22.98
2023-05-13T09:56:24.871Z,23.08
2023-05-13T10:00:39.214Z,23.83
2023-05-13T10:04:53.672Z,24.44
2023-05-13T10:09:09.780Z,24.03
2023-05-13T10:13:24.833Z,24.19
2023-05-13T10:17:38.332Z,24.60
2023-05-13T10:21:52.645Z,25.11
2023-05-13T10:26:07.508Z,24.31
2023-05-13T10:30:20.438Z,24.41
2023-05-13T10:34:35.189Z,24.81
2023-05-13T10:38:58.004Z,23.70
2023-05-13T10:43:13.017Z,24.13
2023-05-13T10:47:25.806Z,24.82
2023-05-13T10:51:47.571Z,24.36
2023-05-13T10:56:00.546Z,26.00
2023-05-13T11:00:18.268Z,25.76
2023-05-13T11:04:31.399Z,24.90
2023-05-13T11:08:46.016Z,24.67
2023-05-13T11:13:16.746Z,25.12
2023-05-13T11:17:31.659Z,25.16
2023-05-13T11:21:50.925Z,23.99
2023-05-13T11:26:15.186Z,23.78
2023-05-13T11:30:28.402Z,23.31
2023-05-13T11:34:51.777Z,22.93
2023-05-13T11:39:12.910Z,22.84
2023-05-13T11:43:25.432Z,22.49
2023-05-13T11:47:37.867Z,22.16
2023-05-13T11:51:50.362Z,21.67
2023-05-13T11:56:11.219Z,21.45
2023-05-13T12:00:31.508Z,21.40
2023-05-13T12:04:45.578Z,21.16
2023-05-13T12:09:06.016Z,20.50
2023-05-13T12:13:20.159Z,20.16
2023-05-13T12:17:32.668Z,19.75
2023-05-13T12:21:45.359Z,19.82
2023-05-13T12:25:57.813Z,20.00
2023-05-13T12:30:15.744Z,19.79
2023-05-13T12:34:35.144Z,19.19
2023-05-13T12:39:01.860Z,18.95
2023-05-13T12:43:15.980Z,18.53
2023-05-13T12:47:28.382Z,18.43
2023-05-13T12:51:40.855Z,18.79
2023-05-13T12:55:53.281Z,19.36
2023-05-13T13:00:06.609Z,19.36
2023-05-13T13:04:19.908Z,19.57
2023-05-13T13:08:32.495Z,20.00
2023-05-13T13:12:44.984Z,19.93
2023-05-13T13:16:57.608Z,19.62
2023-05-13T13:21:11.084Z,19.45
2023-05-13T13:25:23.795Z,19.45
2023-05-13T13:29:36.423Z,19.18
2023-05-13T13:33:48.864Z,19.18
2023-05-13T13:38:01.335Z,18.82
2023-05-13T13:42:14.221Z,18.75
2023-05-13T13:46:26.748Z,18.65
2023-05-13T13:50:39.440Z,18.31
2023-05-13T13:54:51.840Z,18.27
2023-05-13T13:59:04.456Z,18.28
2023-05-13T14:03:16.963Z,18.12
2023-05-13T14:07:29.622Z,18.05
2023-05-13T14:11:42.089Z,18.15
2023-05-13T14:15:54.671Z,17.95
2023-05-13T14:20:07.685Z,17.89
2023-05-13T14:24:20.232Z,17.83
2023-05-13T14:28:32.769Z,17.92
2023-05-13T14:32:45.620Z,17.74
2023-05-13T14:36:58.052Z,17.65
2023-05-13T14:41:10.902Z,17.79
2023-05-13T14:45:23.258Z,17.63
2023-05-13T14:49:35.960Z,17.67
2023-05-13T14:53:48.304Z,17.88
2023-05-13T14:58:01.480Z,17.76
2023-05-13T15:02:15.062Z,17.68
2023-05-13T15:06:27.772Z,17.68
2023-05-13T15:10:40.232Z,17.72
2023-05-13T15:14:56.328Z,17.80
2023-05-13T15:19:08.968Z,17.92
2023-05-13T15:23:21.685Z,17.61
2023-05-13T15:27:34.152Z,17.62
2023-05-13T15:31:49.028Z,17.77
2023-05-13T15:36:01.774Z,17.77
2023-05-13T15:40:15.340Z,17.87
2023-05-13T15:44:28.316Z,17.82
2023-05-13T15:48:40.964Z,18.11
2023-05-13T15:52:54.928Z,18.13
2023-05-13T15:57:07.372Z,18.14
2023-05-13T16:01:19.866Z,17.80
2023-05-13T16:05:32.339Z,18.02
2023-05-13T16:09:45.020Z,17.83
2023-05-13T16:13:57.607Z,17.62
2023-05-13T16:18:10.243Z,17.68
2023-05-13T16:22:31.545Z,17.83
2023-05-13T16:26:44.023Z,17.37
2023-05-13T16:30:58.542Z,17.43
2023-05-13T16:35:14.318Z,17.56
2023-05-13T16:39:27.069Z,17.49
2023-05-13T16:43:39.506Z,17.49
2023-05-13T16:47:51.976Z,17.47
2023-05-13T16:52:05.637Z,17.52
2023-05-13T16:56:18.251Z,17.47
2023-05-13T17:00:30.647Z,17.35
2023-05-13T17:04:43.090Z,17.18
2023-05-13T17:08:55.611Z,17.14
2023-05-13T17:13:08.265Z,17.09
2023-05-13T17:17:23.882Z,17.04
2023-05-13T17:21:36.429Z,17.06
2023-05-13T17:25:49.058Z,17.10
2023-05-13T17:30:01.549Z,17.09
2023-05-13T17:34:14.439Z,17.02
2023-05-13T17:38:27.048Z,17.00
2023-05-13T17:42:39.524Z,16.98
2023-05-13T17:46:51.889Z,16.97
2023-05-13T17:51:04.620Z,16.97
2023-05-13T17:55:17.068Z,16.96
2023-05-13T17:59:29.529Z,16.92
2023-05-13T18:03:41.948Z,16.96
2023-05-13T18:07:54.527Z,16.91
2023-05-13T18:12:07.630Z,16.81
2023-05-13T18:16:20.046Z,16.61
2023-05-13T18:20:33.972Z,16.20
2023-05-13T18:24:47.055Z,15.90
2023-05-13T18:28:59.576Z,15.73
2023-05-13T18:33:12.229Z,15.91
2023-05-13T18:37:24.638Z,15.86
2023-05-13T18:41:37.102Z,15.91
2023-05-13T18:45:49.518Z,15.88
2023-05-13T18:50:01.943Z,15.73
2023-05-13T18:54:15.937Z,15.44
2023-05-13T18:58:28.953Z,15.12
2023-05-13T19:02:41.660Z,15.29
2023-05-13T19:06:54.319Z,15.26
2023-05-13T19:11:06.774Z,15.19
2023-05-13T19:15:21.553Z,15.71
2023-05-13T19:19:33.923Z,15.72
2023-05-13T19:23:47.705Z,15.38
2023-05-13T19:28:00.240Z,15.29
2023-05-13T19:32:12.650Z,15.24
2023-05-13T19:36:26.498Z,15.55
2023-05-13T19:40:39.062Z,15.46
2023-05-13T19:44:51.812Z,15.30
2023-05-13T19:49:04.190Z,15.16
2023-05-13T19:53:16.629Z,15.19
2023-05-13T19:57:30.169Z,15.21
2023-05-13T20:01:42.931Z,15.20
2023-05-13T20:05:55.438Z,15.32
2023-05-13T20:10:08.687Z,15.53
2023-05-13T20:14:27.875Z,15.40
2023-05-13T20:18:40.531Z,15.32
2023-05-13T20:22:53.146Z,15.23
2023-05-13T20:27:06.199Z,15.07
2023-05-13T20:31:19.854Z,15.10
2023-05-13T20:35:32.353Z,14.92
2023-05-13T20:39:44.745Z,14.83
2023-05-13T20:43:57.103Z,14.86
2023-05-13T20:48:09.689Z,14.80
2023-05-13T20:52:23.300Z,14.80
2023-05-13T20:56:35.819Z,14.78
2023-05-13T21:00:48.315Z,14.68
2023-05-13T21:05:00.851Z,14.61
2023-05-13T21:09:13.186Z,14.59
2023-05-13T21:13:26.316Z,14.57
2023-05-13T21:17:38.735Z,14.55
2023-05-13T21:21:51.593Z,14.64
2023-05-13T21:26:07.699Z,14.55
2023-05-13T21:30:20.187Z,14.52
2023-05-13T21:34:32.589Z,14.56
2023-05-13T21:38:44.927Z,14.65
2023-05-13T21:42:57.304Z,14.76
2023-05-13T21:47:09.762Z,14.60
2023-05-13T21:51:22.962Z,14.53
2023-05-13T21:55:35.403Z,14.57
2023-05-13T21:59:47.852Z,14.64
2023-05-13T22:04:00.274Z,14.62
2023-05-13T22:08:12.659Z,14.76
2023-05-13T22:12:25.161Z,14.83
2023-05-13T22:16:38.182Z,14.82
2023-05-13T22:20:51.561Z,14.88
2023-05-13T22:25:04.138Z,15.04
2023-05-13T22:29:16.583Z,15.07
2023-05-13T22:33:30.395Z,14.98
2023-05-13T22:37:43.027Z,15.02
2023-05-13T22:41:56.031Z,14.99
2023-05-13T22:46:08.406Z,15.01
2023-05-13T22:50:20.978Z,14.99
2023-05-13T22:54:33.421Z,15.00
2023-05-13T22:58:46.648Z,15.20
2023-05-13T23:02:59.187Z,15.18
2023-05-13T23:07:11.554Z,15.24
2023-05-13T23:11:24.007Z,15.24
2023-05-13T23:15:39.603Z,15.18
2023-05-13T23:19:51.966Z,15.33
2023-05-13T23:24:04.531Z,15.25
2023-05-13T23:28:17.063Z,15.30
2023-05-13T23:32:29.448Z,15.25
2023-05-13T23:36:41.990Z,15.26
2023-05-13T23:40:54.432Z,15.05
2023-05-13T23:45:07.416Z,14.96
2023-05-13T23:49:19.642Z,15.00
2023-05-13T23:53:32.458Z,15.05
2023-05-13T23:57:44.852Z,15.03
